Terminal Aerodrome Forecast
Issued by NWS

Home | Current Version | Previous Version | Text Only | Print | Product List | Glossary On
Versions: 1 2 3 4 5 6 7 8 9 10 11 12
040
FTPA31 PHFO 130520
TAFHOG
TAF
PHOG 130520Z 1306/1406 08007KT P6SM FEW035 SCT050
     FM132100 07012G20KT P6SM FEW035 SCT050
     FM140500 07010KT P6SM FEW035 SCT050=

USA.gov is the U.S. government's official web portal to all federal, state and local government web resources and services.